sensor_id;sensor_type;location;lat;lon;timestamp;P1;durP1;ratioP1;P2;durP2;ratioP2
68870;SDS011;55906;52.278;6.808;2023-10-09T00:02:06;11.63;;;6.90;;
68870;SDS011;55906;52.278;6.808;2023-10-09T00:04:33;12.98;;;7.32;;
68870;SDS011;55906;52.278;6.808;2023-10-09T00:07:01;12.20;;;7.00;;
68870;SDS011;55906;52.278;6.808;2023-10-09T00:09:32;15.32;;;8.30;;
68870;SDS011;55906;52.278;6.808;2023-10-09T00:12:11;13.70;;;7.55;;
68870;SDS011;55906;52.278;6.808;2023-10-09T00:14:41;15.63;;;8.17;;
68870;SDS011;55906;52.278;6.808;2023-10-09T00:17:14;18.75;;;8.65;;
68870;SDS011;55906;52.278;6.808;2023-10-09T00:19:44;15.38;;;7.95;;
68870;SDS011;55906;52.278;6.808;2023-10-09T00:22:15;14.73;;;7.78;;
68870;SDS011;55906;52.278;6.808;2023-10-09T00:24:52;16.02;;;8.40;;
68870;SDS011;55906;52.278;6.808;2023-10-09T00:27:36;18.57;;;9.20;;
68870;SDS011;55906;52.278;6.808;2023-10-09T00:30:07;12.93;;;7.20;;
68870;SDS011;55906;52.278;6.808;2023-10-09T00:32:41;17.70;;;9.60;;
68870;SDS011;55906;52.278;6.808;2023-10-09T00:35:15;20.13;;;9.07;;
68870;SDS011;55906;52.278;6.808;2023-10-09T00:37:59;14.25;;;7.25;;
68870;SDS011;55906;52.278;6.808;2023-10-09T00:40:32;15.70;;;8.33;;
68870;SDS011;55906;52.278;6.808;2023-10-09T00:43:10;16.45;;;8.10;;
68870;SDS011;55906;52.278;6.808;2023-10-09T00:45:38;17.25;;;7.97;;
68870;SDS011;55906;52.278;6.808;2023-10-09T00:48:08;12.77;;;7.35;;
68870;SDS011;55906;52.278;6.808;2023-10-09T00:50:39;14.65;;;8.20;;
68870;SDS011;55906;52.278;6.808;2023-10-09T00:53:12;19.10;;;10.27;;
68870;SDS011;55906;52.278;6.808;2023-10-09T00:55:43;14.30;;;8.02;;
68870;SDS011;55906;52.278;6.808;2023-10-09T00:58:20;15.45;;;9.15;;
68870;SDS011;55906;52.278;6.808;2023-10-09T01:00:52;16.27;;;8.82;;
68870;SDS011;55906;52.278;6.808;2023-10-09T01:03:21;22.67;;;11.15;;
68870;SDS011;55906;52.278;6.808;2023-10-09T01:05:51;18.77;;;9.63;;
68870;SDS011;55906;52.278;6.808;2023-10-09T01:08:23;21.63;;;10.60;;
68870;SDS011;55906;52.278;6.808;2023-10-09T01:10:56;22.95;;;11.23;;
68870;SDS011;55906;52.278;6.808;2023-10-09T01:13:34;16.90;;;9.13;;
68870;SDS011;55906;52.278;6.808;2023-10-09T01:16:18;18.10;;;9.98;;
68870;SDS011;55906;52.278;6.808;2023-10-09T01:18:48;18.77;;;10.57;;
68870;SDS011;55906;52.278;6.808;2023-10-09T01:21:16;16.90;;;8.88;;
68870;SDS011;55906;52.278;6.808;2023-10-09T01:23:47;23.52;;;11.80;;
68870;SDS011;55906;52.278;6.808;2023-10-09T01:26:28;20.92;;;11.07;;
68870;SDS011;55906;52.278;6.808;2023-10-09T01:28:57;17.65;;;9.88;;
68870;SDS011;55906;52.278;6.808;2023-10-09T01:31:29;21.00;;;11.70;;
68870;SDS011;55906;52.278;6.808;2023-10-09T01:34:03;20.35;;;10.80;;
68870;SDS011;55906;52.278;6.808;2023-10-09T01:36:35;23.08;;;12.38;;
68870;SDS011;55906;52.278;6.808;2023-10-09T01:39:06;22.33;;;13.02;;
68870;SDS011;55906;52.278;6.808;2023-10-09T01:41:46;23.35;;;12.05;;
68870;SDS011;55906;52.278;6.808;2023-10-09T01:44:14;21.80;;;12.17;;
68870;SDS011;55906;52.278;6.808;2023-10-09T01:46:42;21.65;;;10.85;;
68870;SDS011;55906;52.278;6.808;2023-10-09T01:49:11;15.93;;;9.25;;
68870;SDS011;55906;52.278;6.808;2023-10-09T01:51:46;21.00;;;11.45;;
68870;SDS011;55906;52.278;6.808;2023-10-09T01:54:15;23.23;;;12.25;;
68870;SDS011;55906;52.278;6.808;2023-10-09T01:56:58;25.00;;;14.20;;
68870;SDS011;55906;52.278;6.808;2023-10-09T01:59:30;21.23;;;12.18;;
68870;SDS011;55906;52.278;6.808;2023-10-09T02:01:58;22.25;;;11.68;;
68870;SDS011;55906;52.278;6.808;2023-10-09T02:04:31;25.80;;;13.45;;
68870;SDS011;55906;52.278;6.808;2023-10-09T02:06:57;20.73;;;12.63;;
68870;SDS011;55906;52.278;6.808;2023-10-09T02:09:33;15.47;;;8.90;;
68870;SDS011;55906;52.278;6.808;2023-10-09T02:12:00;23.48;;;11.70;;
68870;SDS011;55906;52.278;6.808;2023-10-09T02:14:27;22.10;;;11.30;;
68870;SDS011;55906;52.278;6.808;2023-10-09T02:16:54;22.30;;;12.00;;
68870;SDS011;55906;52.278;6.808;2023-10-09T02:19:33;20.35;;;10.85;;
68870;SDS011;55906;52.278;6.808;2023-10-09T02:22:00;19.73;;;11.40;;
68870;SDS011;55906;52.278;6.808;2023-10-09T02:24:38;21.25;;;11.80;;
68870;SDS011;55906;52.278;6.808;2023-10-09T02:27:16;27.85;;;14.40;;
68870;SDS011;55906;52.278;6.808;2023-10-09T02:30:05;21.55;;;11.55;;
68870;SDS011;55906;52.278;6.808;2023-10-09T02:32:44;29.25;;;14.45;;
68870;SDS011;55906;52.278;6.808;2023-10-09T02:35:17;27.20;;;14.30;;
68870;SDS011;55906;52.278;6.808;2023-10-09T02:38:01;22.58;;;12.23;;
68870;SDS011;55906;52.278;6.808;2023-10-09T02:40:33;26.58;;;13.98;;
68870;SDS011;55906;52.278;6.808;2023-10-09T02:43:20;28.13;;;15.40;;
68870;SDS011;55906;52.278;6.808;2023-10-09T02:45:50;31.42;;;14.90;;
68870;SDS011;55906;52.278;6.808;2023-10-09T02:48:17;29.20;;;15.50;;
68870;SDS011;55906;52.278;6.808;2023-10-09T02:50:46;29.40;;;14.52;;
68870;SDS011;55906;52.278;6.808;2023-10-09T02:53:15;27.58;;;14.13;;
68870;SDS011;55906;52.278;6.808;2023-10-09T02:55:54;28.50;;;14.05;;
68870;SDS011;55906;52.278;6.808;2023-10-09T02:58:37;28.83;;;14.40;;
68870;SDS011;55906;52.278;6.808;2023-10-09T03:01:08;25.40;;;14.57;;
68870;SDS011;55906;52.278;6.808;2023-10-09T03:03:38;24.92;;;13.45;;
68870;SDS011;55906;52.278;6.808;2023-10-09T03:06:06;24.75;;;13.02;;
68870;SDS011;55906;52.278;6.808;2023-10-09T03:08:36;30.65;;;15.23;;
68870;SDS011;55906;52.278;6.808;2023-10-09T03:11:05;29.27;;;15.05;;
68870;SDS011;55906;52.278;6.808;2023-10-09T03:13:38;22.33;;;12.37;;
68870;SDS011;55906;52.278;6.808;2023-10-09T03:16:08;26.48;;;15.05;;
68870;SDS011;55906;52.278;6.808;2023-10-09T03:18:39;28.58;;;15.30;;
68870;SDS011;55906;52.278;6.808;2023-10-09T03:21:07;27.85;;;15.35;;
68870;SDS011;55906;52.278;6.808;2023-10-09T03:23:34;22.60;;;12.75;;
68870;SDS011;55906;52.278;6.808;2023-10-09T03:26:01;30.47;;;14.73;;
68870;SDS011;55906;52.278;6.808;2023-10-09T03:28:30;21.13;;;12.82;;
68870;SDS011;55906;52.278;6.808;2023-10-09T03:30:57;25.00;;;13.93;;
68870;SDS011;55906;52.278;6.808;2023-10-09T03:33:27;27.17;;;15.43;;
68870;SDS011;55906;52.278;6.808;2023-10-09T03:35:58;24.58;;;12.20;;
68870;SDS011;55906;52.278;6.808;2023-10-09T03:38:25;32.60;;;16.83;;
68870;SDS011;55906;52.278;6.808;2023-10-09T03:40:54;29.75;;;15.27;;
68870;SDS011;55906;52.278;6.808;2023-10-09T03:43:21;25.23;;;12.15;;
68870;SDS011;55906;52.278;6.808;2023-10-09T03:45:49;32.85;;;16.17;;
68870;SDS011;55906;52.278;6.808;2023-10-09T03:48:18;26.60;;;14.55;;
68870;SDS011;55906;52.278;6.808;2023-10-09T03:50:51;35.83;;;17.03;;
68870;SDS011;55906;52.278;6.808;2023-10-09T03:53:33;28.90;;;15.18;;
68870;SDS011;55906;52.278;6.808;2023-10-09T03:56:01;31.98;;;16.58;;
68870;SDS011;55906;52.278;6.808;2023-10-09T03:58:30;25.75;;;14.07;;
68870;SDS011;55906;52.278;6.808;2023-10-09T04:01:00;27.48;;;15.38;;
68870;SDS011;55906;52.278;6.808;2023-10-09T04:03:34;27.57;;;14.77;;
68870;SDS011;55906;52.278;6.808;2023-10-09T04:06:02;27.88;;;15.00;;
68870;SDS011;55906;52.278;6.808;2023-10-09T04:08:33;32.20;;;15.45;;
68870;SDS011;55906;52.278;6.808;2023-10-09T04:11:00;27.88;;;15.55;;
68870;SDS011;55906;52.278;6.808;2023-10-09T04:13:30;30.73;;;16.48;;
68870;SDS011;55906;52.278;6.808;2023-10-09T04:16:02;23.97;;;13.73;;
68870;SDS011;55906;52.278;6.808;2023-10-09T04:18:45;32.63;;;18.27;;
68870;SDS011;55906;52.278;6.808;2023-10-09T04:21:12;37.78;;;17.75;;
68870;SDS011;55906;52.278;6.808;2023-10-09T04:23:44;34.45;;;19.13;;
68870;SDS011;55906;52.278;6.808;2023-10-09T04:26:35;33.90;;;17.50;;
68870;SDS011;55906;52.278;6.808;2023-10-09T04:29:05;28.57;;;16.37;;
68870;SDS011;55906;52.278;6.808;2023-10-09T04:31:37;31.52;;;16.20;;
68870;SDS011;55906;52.278;6.808;2023-10-09T04:34:03;30.90;;;17.30;;
68870;SDS011;55906;52.278;6.808;2023-10-09T04:36:49;33.05;;;17.98;;
68870;SDS011;55906;52.278;6.808;2023-10-09T04:39:19;36.70;;;19.27;;
68870;SDS011;55906;52.278;6.808;2023-10-09T04:42:11;33.50;;;16.90;;
68870;SDS011;55906;52.278;6.808;2023-10-09T04:45:02;31.88;;;17.15;;
68870;SDS011;55906;52.278;6.808;2023-10-09T04:48:08;36.92;;;19.52;;
68870;SDS011;55906;52.278;6.808;2023-10-09T04:50:35;34.83;;;18.42;;
68870;SDS011;55906;52.278;6.808;2023-10-09T04:53:12;31.05;;;17.48;;
68870;SDS011;55906;52.278;6.808;2023-10-09T04:55:50;32.63;;;18.10;;
68870;SDS011;55906;52.278;6.808;2023-10-09T04:58:29;30.42;;;15.35;;
68870;SDS011;55906;52.278;6.808;2023-10-09T05:00:58;32.85;;;16.92;;
68870;SDS011;55906;52.278;6.808;2023-10-09T05:03:42;31.40;;;18.60;;
68870;SDS011;55906;52.278;6.808;2023-10-09T05:06:08;34.17;;;17.95;;
68870;SDS011;55906;52.278;6.808;2023-10-09T05:08:47;27.00;;;17.13;;
68870;SDS011;55906;52.278;6.808;2023-10-09T05:11:13;37.95;;;17.98;;
68870;SDS011;55906;52.278;6.808;2023-10-09T05:13:59;32.97;;;17.05;;
68870;SDS011;55906;52.278;6.808;2023-10-09T05:16:37;38.85;;;19.88;;
68870;SDS011;55906;52.278;6.808;2023-10-09T05:19:20;31.52;;;17.25;;
68870;SDS011;55906;52.278;6.808;2023-10-09T05:22:07;30.20;;;15.80;;
68870;SDS011;55906;52.278;6.808;2023-10-09T05:24:51;27.95;;;16.50;;
68870;SDS011;55906;52.278;6.808;2023-10-09T05:27:19;37.47;;;18.63;;
68870;SDS011;55906;52.278;6.808;2023-10-09T05:30:09;36.42;;;19.67;;
68870;SDS011;55906;52.278;6.808;2023-10-09T05:32:51;41.58;;;18.95;;
68870;SDS011;55906;52.278;6.808;2023-10-09T05:35:24;29.27;;;16.17;;
68870;SDS011;55906;52.278;6.808;2023-10-09T05:38:06;28.15;;;15.60;;
68870;SDS011;55906;52.278;6.808;2023-10-09T05:40:49;30.85;;;15.52;;
68870;SDS011;55906;52.278;6.808;2023-10-09T05:43:19;32.42;;;17.02;;
68870;SDS011;55906;52.278;6.808;2023-10-09T05:46:01;32.10;;;17.13;;
68870;SDS011;55906;52.278;6.808;2023-10-09T05:48:34;35.83;;;18.97;;
68870;SDS011;55906;52.278;6.808;2023-10-09T05:51:20;28.00;;;15.65;;
68870;SDS011;55906;52.278;6.808;2023-10-09T05:54:04;27.50;;;15.68;;
68870;SDS011;55906;52.278;6.808;2023-10-09T05:56:45;28.13;;;16.55;;
68870;SDS011;55906;52.278;6.808;2023-10-09T05:59:29;31.20;;;15.10;;
68870;SDS011;55906;52.278;6.808;2023-10-09T06:02:13;33.93;;;17.80;;
68870;SDS011;55906;52.278;6.808;2023-10-09T06:04:57;31.55;;;17.77;;
68870;SDS011;55906;52.278;6.808;2023-10-09T06:07:31;31.48;;;17.60;;
68870;SDS011;55906;52.278;6.808;2023-10-09T06:10:28;31.83;;;16.98;;
68870;SDS011;55906;52.278;6.808;2023-10-09T06:13:04;31.15;;;16.20;;
68870;SDS011;55906;52.278;6.808;2023-10-09T06:15:54;34.17;;;18.20;;
68870;SDS011;55906;52.278;6.808;2023-10-09T06:18:44;34.63;;;18.73;;
68870;SDS011;55906;52.278;6.808;2023-10-09T06:21:18;31.83;;;18.05;;
68870;SDS011;55906;52.278;6.808;2023-10-09T06:24:01;34.10;;;17.73;;
68870;SDS011;55906;52.278;6.808;2023-10-09T06:26:41;31.20;;;17.45;;
68870;SDS011;55906;52.278;6.808;2023-10-09T06:29:19;30.87;;;17.07;;
68870;SDS011;55906;52.278;6.808;2023-10-09T06:32:00;30.52;;;15.95;;
68870;SDS011;55906;52.278;6.808;2023-10-09T06:34:49;30.55;;;17.25;;
68870;SDS011;55906;52.278;6.808;2023-10-09T06:37:18;28.02;;;16.85;;
68870;SDS011;55906;52.278;6.808;2023-10-09T06:40:01;26.70;;;15.95;;
68870;SDS011;55906;52.278;6.808;2023-10-09T06:42:58;26.77;;;15.20;;
68870;SDS011;55906;52.278;6.808;2023-10-09T06:45:34;31.60;;;16.73;;
68870;SDS011;55906;52.278;6.808;2023-10-09T06:48:10;30.40;;;17.08;;
68870;SDS011;55906;52.278;6.808;2023-10-09T06:50:50;30.98;;;18.48;;
68870;SDS011;55906;52.278;6.808;2023-10-09T06:53:29;27.83;;;16.70;;
68870;SDS011;55906;52.278;6.808;2023-10-09T06:56:11;27.90;;;15.87;;
68870;SDS011;55906;52.278;6.808;2023-10-09T06:58:49;27.55;;;16.52;;
68870;SDS011;55906;52.278;6.808;2023-10-09T07:01:19;27.00;;;16.20;;
68870;SDS011;55906;52.278;6.808;2023-10-09T07:03:50;28.65;;;16.00;;
68870;SDS011;55906;52.278;6.808;2023-10-09T07:06:19;34.10;;;17.50;;
68870;SDS011;55906;52.278;6.808;2023-10-09T07:09:12;28.87;;;16.60;;
68870;SDS011;55906;52.278;6.808;2023-10-09T07:11:45;30.13;;;17.95;;
68870;SDS011;55906;52.278;6.808;2023-10-09T07:14:28;26.90;;;15.43;;
68870;SDS011;55906;52.278;6.808;2023-10-09T07:17:15;27.02;;;14.85;;
68870;SDS011;55906;52.278;6.808;2023-10-09T07:19:47;25.90;;;15.32;;
68870;SDS011;55906;52.278;6.808;2023-10-09T07:22:34;31.80;;;16.60;;
68870;SDS011;55906;52.278;6.808;2023-10-09T07:25:17;26.42;;;14.60;;
68870;SDS011;55906;52.278;6.808;2023-10-09T07:28:07;25.02;;;14.68;;
68870;SDS011;55906;52.278;6.808;2023-10-09T07:30:54;24.35;;;13.93;;
68870;SDS011;55906;52.278;6.808;2023-10-09T07:33:23;28.58;;;15.98;;
68870;SDS011;55906;52.278;6.808;2023-10-09T07:36:16;23.83;;;13.80;;
68870;SDS011;55906;52.278;6.808;2023-10-09T07:38:54;21.00;;;12.27;;
68870;SDS011;55906;52.278;6.808;2023-10-09T07:41:29;23.75;;;14.05;;
68870;SDS011;55906;52.278;6.808;2023-10-09T07:44:04;23.13;;;14.43;;
68870;SDS011;55906;52.278;6.808;2023-10-09T07:47:02;27.60;;;14.07;;
68870;SDS011;55906;52.278;6.808;2023-10-09T07:49:48;25.63;;;14.83;;
68870;SDS011;55906;52.278;6.808;2023-10-09T07:52:18;30.23;;;15.55;;
68870;SDS011;55906;52.278;6.808;2023-10-09T07:54:50;28.48;;;15.38;;
68870;SDS011;55906;52.278;6.808;2023-10-09T07:57:19;25.30;;;15.20;;
68870;SDS011;55906;52.278;6.808;2023-10-09T07:59:52;26.10;;;14.45;;
68870;SDS011;55906;52.278;6.808;2023-10-09T08:02:36;26.43;;;15.90;;
68870;SDS011;55906;52.278;6.808;2023-10-09T08:05:04;30.30;;;16.88;;
68870;SDS011;55906;52.278;6.808;2023-10-09T08:07:32;24.08;;;14.57;;
68870;SDS011;55906;52.278;6.808;2023-10-09T08:10:03;29.80;;;15.63;;
68870;SDS011;55906;52.278;6.808;2023-10-09T08:12:48;24.30;;;13.85;;
68870;SDS011;55906;52.278;6.808;2023-10-09T08:15:25;25.50;;;15.67;;
68870;SDS011;55906;52.278;6.808;2023-10-09T08:17:59;23.92;;;14.70;;
68870;SDS011;55906;52.278;6.808;2023-10-09T08:20:35;27.85;;;14.65;;
68870;SDS011;55906;52.278;6.808;2023-10-09T08:23:31;26.40;;;14.73;;
68870;SDS011;55906;52.278;6.808;2023-10-09T08:26:12;24.58;;;15.63;;
68870;SDS011;55906;52.278;6.808;2023-10-09T08:28:39;23.87;;;14.73;;
68870;SDS011;55906;52.278;6.808;2023-10-09T08:31:09;25.38;;;14.85;;
68870;SDS011;55906;52.278;6.808;2023-10-09T08:33:59;26.25;;;15.13;;
68870;SDS011;55906;52.278;6.808;2023-10-09T08:36:26;25.35;;;15.13;;
68870;SDS011;55906;52.278;6.808;2023-10-09T08:39:01;27.20;;;15.43;;
68870;SDS011;55906;52.278;6.808;2023-10-09T08:41:40;23.00;;;15.03;;
68870;SDS011;55906;52.278;6.808;2023-10-09T08:44:07;20.98;;;12.68;;
68870;SDS011;55906;52.278;6.808;2023-10-09T08:46:41;26.33;;;14.52;;
68870;SDS011;55906;52.278;6.808;2023-10-09T08:49:09;27.08;;;14.82;;
68870;SDS011;55906;52.278;6.808;2023-10-09T08:51:40;23.02;;;14.35;;
68870;SDS011;55906;52.278;6.808;2023-10-09T08:54:07;25.40;;;14.10;;
68870;SDS011;55906;52.278;6.808;2023-10-09T08:56:36;21.50;;;13.27;;
68870;SDS011;55906;52.278;6.808;2023-10-09T08:59:05;27.48;;;15.93;;
68870;SDS011;55906;52.278;6.808;2023-10-09T09:01:31;25.83;;;14.45;;
68870;SDS011;55906;52.278;6.808;2023-10-09T09:04:00;22.35;;;13.68;;
68870;SDS011;55906;52.278;6.808;2023-10-09T09:06:35;26.53;;;14.60;;
68870;SDS011;55906;52.278;6.808;2023-10-09T09:09:09;23.83;;;12.55;;
68870;SDS011;55906;52.278;6.808;2023-10-09T09:11:40;24.27;;;14.45;;
68870;SDS011;55906;52.278;6.808;2023-10-09T09:14:13;21.50;;;12.90;;
68870;SDS011;55906;52.278;6.808;2023-10-09T09:16:44;24.35;;;12.90;;
68870;SDS011;55906;52.278;6.808;2023-10-09T09:19:15;18.67;;;11.03;;
68870;SDS011;55906;52.278;6.808;2023-10-09T09:21:47;20.23;;;12.30;;
68870;SDS011;55906;52.278;6.808;2023-10-09T09:24:19;23.65;;;14.18;;
68870;SDS011;55906;52.278;6.808;2023-10-09T09:26:56;20.73;;;13.65;;
68870;SDS011;55906;52.278;6.808;2023-10-09T09:29:38;18.42;;;12.10;;
68870;SDS011;55906;52.278;6.808;2023-10-09T09:32:06;24.23;;;14.13;;
68870;SDS011;55906;52.278;6.808;2023-10-09T09:34:47;21.92;;;12.90;;
68870;SDS011;55906;52.278;6.808;2023-10-09T09:37:18;22.80;;;13.30;;
68870;SDS011;55906;52.278;6.808;2023-10-09T09:39:46;21.75;;;12.43;;
68870;SDS011;55906;52.278;6.808;2023-10-09T09:42:17;18.23;;;11.85;;
68870;SDS011;55906;52.278;6.808;2023-10-09T09:44:50;21.67;;;11.43;;
68870;SDS011;55906;52.278;6.808;2023-10-09T09:47:18;20.95;;;12.48;;
68870;SDS011;55906;52.278;6.808;2023-10-09T09:49:53;20.25;;;12.13;;
68870;SDS011;55906;52.278;6.808;2023-10-09T09:52:24;23.48;;;13.15;;
68870;SDS011;55906;52.278;6.808;2023-10-09T09:54:53;21.38;;;12.23;;
68870;SDS011;55906;52.278;6.808;2023-10-09T09:57:20;20.17;;;12.30;;
68870;SDS011;55906;52.278;6.808;2023-10-09T09:59:52;18.52;;;10.73;;
68870;SDS011;55906;52.278;6.808;2023-10-09T10:02:22;21.40;;;11.45;;
68870;SDS011;55906;52.278;6.808;2023-10-09T10:05:02;20.02;;;12.95;;
68870;SDS011;55906;52.278;6.808;2023-10-09T10:07:32;21.90;;;11.90;;
68870;SDS011;55906;52.278;6.808;2023-10-09T10:13:15;16.90;;;10.32;;
68870;SDS011;55906;52.278;6.808;2023-10-09T10:15:58;16.45;;;11.02;;
68870;SDS011;55906;52.278;6.808;2023-10-09T10:18:53;18.42;;;10.00;;
68870;SDS011;55906;52.278;6.808;2023-10-09T10:21:33;17.73;;;9.68;;
68870;SDS011;55906;52.278;6.808;2023-10-09T10:27:28;16.85;;;9.77;;
68870;SDS011;55906;52.278;6.808;2023-10-09T10:33:08;25.38;;;10.45;;
68870;SDS011;55906;52.278;6.808;2023-10-09T10:35:41;21.77;;;9.70;;
68870;SDS011;55906;52.278;6.808;2023-10-09T10:38:25;18.03;;;10.17;;
68870;SDS011;55906;52.278;6.808;2023-10-09T10:41:13;15.02;;;8.70;;
68870;SDS011;55906;52.278;6.808;2023-10-09T10:43:42;18.92;;;9.45;;
68870;SDS011;55906;52.278;6.808;2023-10-09T10:46:30;17.52;;;8.65;;
68870;SDS011;55906;52.278;6.808;2023-10-09T10:48:59;16.55;;;8.95;;
68870;SDS011;55906;52.278;6.808;2023-10-09T10:51:40;15.57;;;8.83;;
68870;SDS011;55906;52.278;6.808;2023-10-09T10:54:19;13.40;;;8.00;;
68870;SDS011;55906;52.278;6.808;2023-10-09T10:57:13;14.80;;;7.38;;
68870;SDS011;55906;52.278;6.808;2023-10-09T10:59:45;16.30;;;8.32;;
68870;SDS011;55906;52.278;6.808;2023-10-09T11:02:14;11.90;;;7.05;;
68870;SDS011;55906;52.278;6.808;2023-10-09T11:04:53;15.83;;;7.37;;
68870;SDS011;55906;52.278;6.808;2023-10-09T11:07:21;14.52;;;7.13;;
68870;SDS011;55906;52.278;6.808;2023-10-09T11:09:54;13.70;;;8.18;;
68870;SDS011;55906;52.278;6.808;2023-10-09T11:12:42;13.70;;;7.28;;
68870;SDS011;55906;52.278;6.808;2023-10-09T11:15:31;11.95;;;7.32;;
68870;SDS011;55906;52.278;6.808;2023-10-09T11:18:09;15.63;;;7.10;;
68870;SDS011;55906;52.278;6.808;2023-10-09T11:20:45;16.60;;;7.38;;
68870;SDS011;55906;52.278;6.808;2023-10-09T11:23:22;14.32;;;7.40;;
68870;SDS011;55906;52.278;6.808;2023-10-09T11:26:03;17.50;;;7.88;;
68870;SDS011;55906;52.278;6.808;2023-10-09T11:28:46;14.38;;;7.07;;
68870;SDS011;55906;52.278;6.808;2023-10-09T11:31:38;17.47;;;8.00;;
68870;SDS011;55906;52.278;6.808;2023-10-09T11:34:17;11.05;;;6.00;;
68870;SDS011;55906;52.278;6.808;2023-10-09T11:36:54;14.00;;;7.07;;
68870;SDS011;55906;52.278;6.808;2023-10-09T11:39:24;13.70;;;7.05;;
68870;SDS011;55906;52.278;6.808;2023-10-09T11:42:05;15.15;;;6.72;;
68870;SDS011;55906;52.278;6.808;2023-10-09T11:44:39;12.97;;;6.60;;
68870;SDS011;55906;52.278;6.808;2023-10-09T11:47:06;18.65;;;7.60;;
68870;SDS011;55906;52.278;6.808;2023-10-09T11:49:58;17.08;;;6.63;;
68870;SDS011;55906;52.278;6.808;2023-10-09T11:52:55;18.35;;;6.68;;
68870;SDS011;55906;52.278;6.808;2023-10-09T11:55:34;12.77;;;6.45;;
68870;SDS011;55906;52.278;6.808;2023-10-09T11:58:03;16.90;;;6.73;;
68870;SDS011;55906;52.278;6.808;2023-10-09T12:00:32;12.15;;;6.45;;
68870;SDS011;55906;52.278;6.808;2023-10-09T12:03:09;12.43;;;5.53;;
68870;SDS011;55906;52.278;6.808;2023-10-09T12:05:38;10.52;;;5.88;;
68870;SDS011;55906;52.278;6.808;2023-10-09T12:08:07;14.80;;;6.10;;
68870;SDS011;55906;52.278;6.808;2023-10-09T12:10:34;12.13;;;6.40;;
68870;SDS011;55906;52.278;6.808;2023-10-09T12:13:05;17.08;;;6.68;;
68870;SDS011;55906;52.278;6.808;2023-10-09T12:15:32;12.82;;;6.03;;
68870;SDS011;55906;52.278;6.808;2023-10-09T12:18:04;13.40;;;6.35;;
68870;SDS011;55906;52.278;6.808;2023-10-09T12:20:34;11.63;;;5.57;;
68870;SDS011;55906;52.278;6.808;2023-10-09T12:23:01;10.93;;;5.80;;
68870;SDS011;55906;52.278;6.808;2023-10-09T12:25:30;9.27;;;4.97;;
68870;SDS011;55906;52.278;6.808;2023-10-09T12:27:58;11.00;;;5.45;;
68870;SDS011;55906;52.278;6.808;2023-10-09T12:30:28;11.15;;;4.85;;
68870;SDS011;55906;52.278;6.808;2023-10-09T12:32:54;10.27;;;5.45;;
68870;SDS011;55906;52.278;6.808;2023-10-09T12:35:22;10.53;;;4.97;;
68870;SDS011;55906;52.278;6.808;2023-10-09T12:37:50;11.77;;;5.15;;
68870;SDS011;55906;52.278;6.808;2023-10-09T12:40:17;10.85;;;4.45;;
68870;SDS011;55906;52.278;6.808;2023-10-09T12:42:49;9.93;;;4.70;;
68870;SDS011;55906;52.278;6.808;2023-10-09T12:45:17;8.80;;;4.47;;
68870;SDS011;55906;52.278;6.808;2023-10-09T12:47:52;8.87;;;4.10;;
68870;SDS011;55906;52.278;6.808;2023-10-09T12:50:24;11.63;;;4.93;;
68870;SDS011;55906;52.278;6.808;2023-10-09T12:52:54;9.65;;;4.03;;
68870;SDS011;55906;52.278;6.808;2023-10-09T12:55:21;9.77;;;5.05;;
68870;SDS011;55906;52.278;6.808;2023-10-09T12:57:57;9.95;;;5.05;;
68870;SDS011;55906;52.278;6.808;2023-10-09T13:00:29;11.30;;;5.23;;
68870;SDS011;55906;52.278;6.808;2023-10-09T13:02:59;8.80;;;4.53;;
68870;SDS011;55906;52.278;6.808;2023-10-09T13:05:28;11.48;;;5.15;;
68870;SDS011;55906;52.278;6.808;2023-10-09T13:07:54;13.02;;;6.20;;
68870;SDS011;55906;52.278;6.808;2023-10-09T13:10:23;17.70;;;6.43;;
68870;SDS011;55906;52.278;6.808;2023-10-09T13:12:51;19.53;;;7.67;;
68870;SDS011;55906;52.278;6.808;2023-10-09T13:15:21;16.73;;;6.60;;
68870;SDS011;55906;52.278;6.808;2023-10-09T13:17:48;12.48;;;6.50;;
68870;SDS011;55906;52.278;6.808;2023-10-09T13:20:19;13.63;;;5.90;;
68870;SDS011;55906;52.278;6.808;2023-10-09T13:22:46;11.35;;;5.60;;
68870;SDS011;55906;52.278;6.808;2023-10-09T13:25:14;11.37;;;5.90;;
68870;SDS011;55906;52.278;6.808;2023-10-09T13:27:42;13.15;;;5.65;;
68870;SDS011;55906;52.278;6.808;2023-10-09T13:30:16;10.07;;;5.40;;
68870;SDS011;55906;52.278;6.808;2023-10-09T13:32:48;11.27;;;5.28;;
68870;SDS011;55906;52.278;6.808;2023-10-09T13:35:16;10.30;;;5.20;;
68870;SDS011;55906;52.278;6.808;2023-10-09T13:37:45;10.80;;;5.83;;
68870;SDS011;55906;52.278;6.808;2023-10-09T13:40:19;12.02;;;5.57;;
68870;SDS011;55906;52.278;6.808;2023-10-09T13:42:53;11.02;;;5.28;;
68870;SDS011;55906;52.278;6.808;2023-10-09T13:45:24;11.68;;;5.07;;
68870;SDS011;55906;52.278;6.808;2023-10-09T13:47:53;11.27;;;5.57;;
68870;SDS011;55906;52.278;6.808;2023-10-09T13:50:23;9.77;;;4.67;;
68870;SDS011;55906;52.278;6.808;2023-10-09T13:52:55;10.77;;;4.57;;
68870;SDS011;55906;52.278;6.808;2023-10-09T13:55:22;11.40;;;4.72;;
68870;SDS011;55906;52.278;6.808;2023-10-09T13:57:56;13.57;;;5.32;;
68870;SDS011;55906;52.278;6.808;2023-10-09T14:00:24;12.60;;;5.28;;
68870;SDS011;55906;52.278;6.808;2023-10-09T14:02:59;9.67;;;5.10;;
68870;SDS011;55906;52.278;6.808;2023-10-09T14:05:36;11.52;;;5.70;;
68870;SDS011;55906;52.278;6.808;2023-10-09T14:08:18;12.27;;;4.93;;
68870;SDS011;55906;52.278;6.808;2023-10-09T14:10:48;9.40;;;5.40;;
68870;SDS011;55906;52.278;6.808;2023-10-09T14:13:14;8.73;;;4.57;;
68870;SDS011;55906;52.278;6.808;2023-10-09T14:15:43;8.67;;;4.50;;
68870;SDS011;55906;52.278;6.808;2023-10-09T14:18:11;10.55;;;5.00;;
68870;SDS011;55906;52.278;6.808;2023-10-09T14:20:39;10.23;;;5.03;;
68870;SDS011;55906;52.278;6.808;2023-10-09T14:23:06;8.98;;;5.10;;
68870;SDS011;55906;52.278;6.808;2023-10-09T14:25:37;9.57;;;4.63;;
68870;SDS011;55906;52.278;6.808;2023-10-09T14:28:05;8.60;;;4.40;;
68870;SDS011;55906;52.278;6.808;2023-10-09T14:30:33;7.07;;;3.92;;
68870;SDS011;55906;52.278;6.808;2023-10-09T14:33:07;8.30;;;4.55;;
68870;SDS011;55906;52.278;6.808;2023-10-09T14:35:37;7.80;;;4.60;;
68870;SDS011;55906;52.278;6.808;2023-10-09T14:38:05;8.63;;;4.40;;
68870;SDS011;55906;52.278;6.808;2023-10-09T14:40:39;8.07;;;3.63;;
68870;SDS011;55906;52.278;6.808;2023-10-09T14:43:07;10.20;;;4.03;;
68870;SDS011;55906;52.278;6.808;2023-10-09T14:45:44;9.30;;;4.63;;
68870;SDS011;55906;52.278;6.808;2023-10-09T14:48:14;10.15;;;4.63;;
68870;SDS011;55906;52.278;6.808;2023-10-09T14:50:46;9.90;;;4.88;;
68870;SDS011;55906;52.278;6.808;2023-10-09T14:53:14;11.43;;;5.00;;
68870;SDS011;55906;52.278;6.808;2023-10-09T14:55:43;10.32;;;5.15;;
68870;SDS011;55906;52.278;6.808;2023-10-09T14:58:11;11.70;;;5.07;;
68870;SDS011;55906;52.278;6.808;2023-10-09T15:00:38;8.30;;;5.15;;
68870;SDS011;55906;52.278;6.808;2023-10-09T15:03:11;11.10;;;4.93;;
68870;SDS011;55906;52.278;6.808;2023-10-09T15:05:40;9.97;;;4.93;;
68870;SDS011;55906;52.278;6.808;2023-10-09T15:08:08;8.88;;;3.90;;
68870;SDS011;55906;52.278;6.808;2023-10-09T15:10:44;9.82;;;4.63;;
68870;SDS011;55906;52.278;6.808;2023-10-09T15:13:12;10.52;;;5.40;;
68870;SDS011;55906;52.278;6.808;2023-10-09T15:15:41;11.77;;;5.30;;
68870;SDS011;55906;52.278;6.808;2023-10-09T15:18:08;11.10;;;5.00;;
68870;SDS011;55906;52.278;6.808;2023-10-09T15:20:38;10.90;;;5.63;;